KHHR

Jack Northrop Field / Hawthorne Municipal Airport

Hawthorne, California, USA
METAR KHHR 212253Z 25010KT 10SM CLR 26/19 A2993 RMK AO2 SLP132 T02610189
Observed Flight Rules
Aug-21 @ 22:53 UTC (54 minutes ago) Visual Flight Rules
Wind Visibility Clouds
250° at 10 knots 10 miles
  • Clear skies
Temperatures Readings
Current 26°C / 79°F
Dewpoint 19°C / 66°F
Humidity 65%
Altimeter 29.93" Hg
Pressure 1013.2 hPa
Elevation 18
METAR KHHR 212253Z 25010KT 10SM CLR 26/19 A2993 RMK AO2 SLP132 T02610189
Observed Flight Rules
Aug-21 @ 22:53 UTC
(54 minutes ago)
VFR
Wind Visibility
250° at 10 knots 10 miles
Clouds
  • Clear skies
Temperature Dewpoint
26°C / 79°F 19°C / 66°F
Humidity Altimeter Pressure
65% 29.93" Hg 1013.2 hPa